sensor_id;sensor_type;location;lat;lon;timestamp;P1;durP1;ratioP1;P2;durP2;ratioP2
59468;SDS011;45277;52.768;18.262;2023-05-10T00:00:02;7.07;;;4.13;;
59468;SDS011;45277;52.768;18.262;2023-05-10T00:01:55;7.38;;;4.00;;
59468;SDS011;45277;52.768;18.262;2023-05-10T00:03:26;7.38;;;4.18;;
59468;SDS011;45277;52.768;18.262;2023-05-10T00:04:58;9.98;;;4.43;;
59468;SDS011;45277;52.768;18.262;2023-05-10T00:06:29;8.00;;;4.20;;
59468;SDS011;45277;52.768;18.262;2023-05-10T00:08:00;7.25;;;4.50;;
59468;SDS011;45277;52.768;18.262;2023-05-10T00:09:32;9.18;;;4.55;;
59468;SDS011;45277;52.768;18.262;2023-05-10T00:11:03;5.53;;;3.97;;
59468;SDS011;45277;52.768;18.262;2023-05-10T00:12:35;10.38;;;4.20;;
59468;SDS011;45277;52.768;18.262;2023-05-10T00:14:06;10.02;;;4.90;;
59468;SDS011;45277;52.768;18.262;2023-05-10T00:15:38;6.97;;;4.38;;
59468;SDS011;45277;52.768;18.262;2023-05-10T00:17:09;6.50;;;3.97;;
59468;SDS011;45277;52.768;18.262;2023-05-10T00:18:40;7.25;;;4.20;;
59468;SDS011;45277;52.768;18.262;2023-05-10T00:20:12;6.65;;;4.00;;
59468;SDS011;45277;52.768;18.262;2023-05-10T00:21:43;6.75;;;4.22;;
59468;SDS011;45277;52.768;18.262;2023-05-10T00:23:15;8.13;;;4.10;;
59468;SDS011;45277;52.768;18.262;2023-05-10T00:24:46;5.90;;;4.05;;
59468;SDS011;45277;52.768;18.262;2023-05-10T00:26:17;7.45;;;3.92;;
59468;SDS011;45277;52.768;18.262;2023-05-10T00:27:49;6.43;;;4.45;;
59468;SDS011;45277;52.768;18.262;2023-05-10T00:29:21;6.88;;;4.15;;
59468;SDS011;45277;52.768;18.262;2023-05-10T00:30:52;7.38;;;3.97;;
59468;SDS011;45277;52.768;18.262;2023-05-10T00:32:23;8.77;;;4.78;;
59468;SDS011;45277;52.768;18.262;2023-05-10T00:33:55;7.35;;;4.35;;
59468;SDS011;45277;52.768;18.262;2023-05-10T00:35:26;7.07;;;4.35;;
59468;SDS011;45277;52.768;18.262;2023-05-10T00:36:58;7.18;;;5.07;;
59468;SDS011;45277;52.768;18.262;2023-05-10T00:38:29;8.93;;;4.40;;
59468;SDS011;45277;52.768;18.262;2023-05-10T00:40:00;6.18;;;4.22;;
59468;SDS011;45277;52.768;18.262;2023-05-10T00:41:32;7.32;;;4.28;;
59468;SDS011;45277;52.768;18.262;2023-05-10T00:43:03;9.70;;;4.40;;
59468;SDS011;45277;52.768;18.262;2023-05-10T00:44:35;7.53;;;4.22;;
59468;SDS011;45277;52.768;18.262;2023-05-10T00:46:07;6.93;;;4.28;;
59468;SDS011;45277;52.768;18.262;2023-05-10T00:47:38;10.88;;;4.68;;
59468;SDS011;45277;52.768;18.262;2023-05-10T00:49:10;5.95;;;4.38;;
59468;SDS011;45277;52.768;18.262;2023-05-10T00:50:42;8.48;;;4.50;;
59468;SDS011;45277;52.768;18.262;2023-05-10T00:52:15;7.63;;;4.40;;
59468;SDS011;45277;52.768;18.262;2023-05-10T00:53:46;8.40;;;4.45;;
59468;SDS011;45277;52.768;18.262;2023-05-10T00:55:19;7.40;;;4.90;;
59468;SDS011;45277;52.768;18.262;2023-05-10T00:56:51;8.35;;;4.80;;
59468;SDS011;45277;52.768;18.262;2023-05-10T00:58:22;7.78;;;4.90;;
59468;SDS011;45277;52.768;18.262;2023-05-10T00:59:59;9.45;;;4.65;;
59468;SDS011;45277;52.768;18.262;2023-05-10T01:01:30;7.10;;;4.70;;
59468;SDS011;45277;52.768;18.262;2023-05-10T01:03:01;8.73;;;4.90;;
59468;SDS011;45277;52.768;18.262;2023-05-10T01:04:34;6.63;;;4.40;;
59468;SDS011;45277;52.768;18.262;2023-05-10T01:06:06;10.45;;;4.60;;
59468;SDS011;45277;52.768;18.262;2023-05-10T01:07:38;7.85;;;4.28;;
59468;SDS011;45277;52.768;18.262;2023-05-10T01:09:10;8.93;;;5.00;;
59468;SDS011;45277;52.768;18.262;2023-05-10T01:10:42;11.52;;;4.82;;
59468;SDS011;45277;52.768;18.262;2023-05-10T01:12:14;7.53;;;4.28;;
59468;SDS011;45277;52.768;18.262;2023-05-10T01:13:47;7.35;;;4.68;;
59468;SDS011;45277;52.768;18.262;2023-05-10T01:15:25;7.38;;;5.05;;
59468;SDS011;45277;52.768;18.262;2023-05-10T01:16:57;6.85;;;4.47;;
59468;SDS011;45277;52.768;18.262;2023-05-10T01:18:29;5.80;;;4.35;;
59468;SDS011;45277;52.768;18.262;2023-05-10T01:20:03;8.18;;;4.60;;
59468;SDS011;45277;52.768;18.262;2023-05-10T01:21:43;10.10;;;4.65;;
59468;SDS011;45277;52.768;18.262;2023-05-10T01:27:38;9.65;;;5.60;;
59468;SDS011;45277;52.768;18.262;2023-05-10T01:29:41;12.38;;;7.07;;
59468;SDS011;45277;52.768;18.262;2023-05-10T01:35:35;11.52;;;6.95;;
59468;SDS011;45277;52.768;18.262;2023-05-10T01:37:13;11.10;;;6.60;;
59468;SDS011;45277;52.768;18.262;2023-05-10T01:38:51;11.05;;;5.85;;
59468;SDS011;45277;52.768;18.262;2023-05-10T01:40:30;11.07;;;5.97;;
59468;SDS011;45277;52.768;18.262;2023-05-10T01:42:08;12.73;;;6.20;;
59468;SDS011;45277;52.768;18.262;2023-05-10T01:44:07;8.90;;;5.90;;
59468;SDS011;45277;52.768;18.262;2023-05-10T01:47:50;13.20;;;5.28;;
59468;SDS011;45277;52.768;18.262;2023-05-10T01:49:34;7.55;;;5.30;;
59468;SDS011;45277;52.768;18.262;2023-05-10T01:51:13;7.55;;;4.93;;
59468;SDS011;45277;52.768;18.262;2023-05-10T01:52:55;10.52;;;5.50;;
59468;SDS011;45277;52.768;18.262;2023-05-10T01:54:28;7.18;;;4.55;;
59468;SDS011;45277;52.768;18.262;2023-05-10T01:56:00;7.95;;;4.70;;
59468;SDS011;45277;52.768;18.262;2023-05-10T01:57:35;8.95;;;5.10;;
59468;SDS011;45277;52.768;18.262;2023-05-10T01:59:11;8.10;;;5.00;;
59468;SDS011;45277;52.768;18.262;2023-05-10T02:00:46;7.97;;;4.95;;
59468;SDS011;45277;52.768;18.262;2023-05-10T02:02:20;9.18;;;5.13;;
59468;SDS011;45277;52.768;18.262;2023-05-10T02:03:53;7.68;;;5.30;;
59468;SDS011;45277;52.768;18.262;2023-05-10T02:05:26;11.07;;;5.07;;
59468;SDS011;45277;52.768;18.262;2023-05-10T02:07:00;9.30;;;4.85;;
59468;SDS011;45277;52.768;18.262;2023-05-10T02:08:32;9.43;;;5.00;;
59468;SDS011;45277;52.768;18.262;2023-05-10T02:10:07;9.93;;;4.90;;
59468;SDS011;45277;52.768;18.262;2023-05-10T02:11:41;7.47;;;4.80;;
59468;SDS011;45277;52.768;18.262;2023-05-10T02:13:14;8.48;;;5.05;;
59468;SDS011;45277;52.768;18.262;2023-05-10T02:14:48;7.88;;;4.65;;
59468;SDS011;45277;52.768;18.262;2023-05-10T02:16:23;9.52;;;5.40;;
59468;SDS011;45277;52.768;18.262;2023-05-10T02:17:57;7.38;;;4.85;;
59468;SDS011;45277;52.768;18.262;2023-05-10T02:19:31;8.98;;;5.07;;
59468;SDS011;45277;52.768;18.262;2023-05-10T02:21:04;7.88;;;5.28;;
59468;SDS011;45277;52.768;18.262;2023-05-10T02:22:36;8.50;;;5.20;;
59468;SDS011;45277;52.768;18.262;2023-05-10T02:24:09;8.07;;;5.45;;
59468;SDS011;45277;52.768;18.262;2023-05-10T02:25:43;8.65;;;5.15;;
59468;SDS011;45277;52.768;18.262;2023-05-10T02:27:15;8.93;;;5.68;;
59468;SDS011;45277;52.768;18.262;2023-05-10T02:28:50;10.15;;;4.80;;
59468;SDS011;45277;52.768;18.262;2023-05-10T02:30:23;7.82;;;5.85;;
59468;SDS011;45277;52.768;18.262;2023-05-10T02:31:56;7.82;;;4.95;;
59468;SDS011;45277;52.768;18.262;2023-05-10T02:33:29;9.23;;;5.30;;
59468;SDS011;45277;52.768;18.262;2023-05-10T02:35:02;10.65;;;5.93;;
59468;SDS011;45277;52.768;18.262;2023-05-10T02:36:35;9.70;;;5.70;;
59468;SDS011;45277;52.768;18.262;2023-05-10T02:38:08;8.60;;;5.25;;
59468;SDS011;45277;52.768;18.262;2023-05-10T02:39:42;9.98;;;5.32;;
59468;SDS011;45277;52.768;18.262;2023-05-10T02:41:15;8.70;;;5.50;;
59468;SDS011;45277;52.768;18.262;2023-05-10T02:42:48;9.10;;;5.43;;
59468;SDS011;45277;52.768;18.262;2023-05-10T02:44:23;9.55;;;5.88;;
59468;SDS011;45277;52.768;18.262;2023-05-10T02:45:55;11.88;;;6.20;;
59468;SDS011;45277;52.768;18.262;2023-05-10T02:47:28;8.95;;;5.88;;
59468;SDS011;45277;52.768;18.262;2023-05-10T02:49:00;8.80;;;6.10;;
59468;SDS011;45277;52.768;18.262;2023-05-10T02:50:32;10.98;;;5.72;;
59468;SDS011;45277;52.768;18.262;2023-05-10T02:52:07;11.50;;;5.25;;
59468;SDS011;45277;52.768;18.262;2023-05-10T02:53:40;8.55;;;5.47;;
59468;SDS011;45277;52.768;18.262;2023-05-10T02:55:15;9.00;;;5.30;;
59468;SDS011;45277;52.768;18.262;2023-05-10T02:56:51;12.93;;;5.57;;
59468;SDS011;45277;52.768;18.262;2023-05-10T02:58:31;9.00;;;5.50;;
59468;SDS011;45277;52.768;18.262;2023-05-10T03:00:03;9.20;;;5.90;;
59468;SDS011;45277;52.768;18.262;2023-05-10T03:01:35;10.63;;;6.88;;
59468;SDS011;45277;52.768;18.262;2023-05-10T03:03:07;21.15;;;8.32;;
59468;SDS011;45277;52.768;18.262;2023-05-10T03:04:38;11.25;;;7.20;;
59468;SDS011;45277;52.768;18.262;2023-05-10T03:06:10;11.77;;;7.22;;
59468;SDS011;45277;52.768;18.262;2023-05-10T03:07:42;11.63;;;6.50;;
59468;SDS011;45277;52.768;18.262;2023-05-10T03:09:13;9.25;;;5.72;;
59468;SDS011;45277;52.768;18.262;2023-05-10T03:10:54;9.10;;;5.68;;
59468;SDS011;45277;52.768;18.262;2023-05-10T03:17:00;9.68;;;5.78;;
59468;SDS011;45277;52.768;18.262;2023-05-10T03:18:35;9.25;;;5.60;;
59468;SDS011;45277;52.768;18.262;2023-05-10T03:20:49;9.43;;;4.90;;
59468;SDS011;45277;52.768;18.262;2023-05-10T03:22:38;13.07;;;5.30;;
59468;SDS011;45277;52.768;18.262;2023-05-10T03:24:15;7.25;;;5.10;;
59468;SDS011;45277;52.768;18.262;2023-05-10T03:25:49;7.13;;;4.97;;
59468;SDS011;45277;52.768;18.262;2023-05-10T03:27:22;9.50;;;5.25;;
59468;SDS011;45277;52.768;18.262;2023-05-10T03:28:55;8.45;;;5.22;;
59468;SDS011;45277;52.768;18.262;2023-05-10T03:30:29;7.35;;;5.13;;
59468;SDS011;45277;52.768;18.262;2023-05-10T03:32:02;10.85;;;4.93;;
59468;SDS011;45277;52.768;18.262;2023-05-10T03:33:33;7.30;;;4.90;;
59468;SDS011;45277;52.768;18.262;2023-05-10T03:35:12;8.10;;;4.93;;
59468;SDS011;45277;52.768;18.262;2023-05-10T03:36:44;7.65;;;5.20;;
59468;SDS011;45277;52.768;18.262;2023-05-10T03:38:16;9.95;;;5.03;;
59468;SDS011;45277;52.768;18.262;2023-05-10T03:39:47;7.35;;;5.22;;
59468;SDS011;45277;52.768;18.262;2023-05-10T03:41:19;7.78;;;5.25;;
59468;SDS011;45277;52.768;18.262;2023-05-10T03:42:51;9.98;;;4.97;;
59468;SDS011;45277;52.768;18.262;2023-05-10T03:44:22;10.00;;;4.90;;
59468;SDS011;45277;52.768;18.262;2023-05-10T03:45:54;10.43;;;4.60;;
59468;SDS011;45277;52.768;18.262;2023-05-10T03:47:25;10.35;;;4.95;;
59468;SDS011;45277;52.768;18.262;2023-05-10T03:48:57;10.85;;;5.15;;
59468;SDS011;45277;52.768;18.262;2023-05-10T03:50:28;8.90;;;5.25;;
59468;SDS011;45277;52.768;18.262;2023-05-10T03:51:59;10.85;;;5.30;;
59468;SDS011;45277;52.768;18.262;2023-05-10T03:53:31;7.68;;;5.00;;
59468;SDS011;45277;52.768;18.262;2023-05-10T03:55:03;9.32;;;4.50;;
59468;SDS011;45277;52.768;18.262;2023-05-10T03:56:34;7.10;;;5.13;;
59468;SDS011;45277;52.768;18.262;2023-05-10T03:58:06;9.65;;;5.15;;
59468;SDS011;45277;52.768;18.262;2023-05-10T03:59:41;10.90;;;4.90;;
59468;SDS011;45277;52.768;18.262;2023-05-10T04:01:12;12.95;;;5.95;;
59468;SDS011;45277;52.768;18.262;2023-05-10T04:02:44;9.90;;;4.70;;
59468;SDS011;45277;52.768;18.262;2023-05-10T04:04:15;8.90;;;4.80;;
59468;SDS011;45277;52.768;18.262;2023-05-10T04:05:48;7.53;;;5.20;;
59468;SDS011;45277;52.768;18.262;2023-05-10T04:07:28;11.90;;;5.28;;
59468;SDS011;45277;52.768;18.262;2023-05-10T04:09:00;11.25;;;5.55;;
59468;SDS011;45277;52.768;18.262;2023-05-10T04:10:34;8.43;;;4.93;;
59468;SDS011;45277;52.768;18.262;2023-05-10T04:12:06;6.40;;;4.85;;
59468;SDS011;45277;52.768;18.262;2023-05-10T04:13:37;7.38;;;4.93;;
59468;SDS011;45277;52.768;18.262;2023-05-10T04:15:09;7.85;;;4.88;;
59468;SDS011;45277;52.768;18.262;2023-05-10T04:16:41;7.82;;;4.80;;
59468;SDS011;45277;52.768;18.262;2023-05-10T04:18:12;10.35;;;5.10;;
59468;SDS011;45277;52.768;18.262;2023-05-10T04:19:43;13.50;;;5.00;;
59468;SDS011;45277;52.768;18.262;2023-05-10T04:21:15;8.73;;;4.20;;
59468;SDS011;45277;52.768;18.262;2023-05-10T04:22:46;10.60;;;5.00;;
59468;SDS011;45277;52.768;18.262;2023-05-10T04:24:17;8.48;;;4.75;;
59468;SDS011;45277;52.768;18.262;2023-05-10T04:25:49;11.57;;;4.80;;
59468;SDS011;45277;52.768;18.262;2023-05-10T04:27:20;9.43;;;4.60;;
59468;SDS011;45277;52.768;18.262;2023-05-10T04:28:52;8.30;;;4.72;;
59468;SDS011;45277;52.768;18.262;2023-05-10T04:30:23;8.27;;;4.47;;
59468;SDS011;45277;52.768;18.262;2023-05-10T04:31:55;12.60;;;4.88;;
59468;SDS011;45277;52.768;18.262;2023-05-10T04:33:27;8.00;;;4.90;;
59468;SDS011;45277;52.768;18.262;2023-05-10T04:34:58;9.52;;;4.22;;
59468;SDS011;45277;52.768;18.262;2023-05-10T04:36:30;11.50;;;4.78;;
59468;SDS011;45277;52.768;18.262;2023-05-10T04:38:03;12.23;;;4.60;;
59468;SDS011;45277;52.768;18.262;2023-05-10T04:39:34;10.35;;;4.55;;
59468;SDS011;45277;52.768;18.262;2023-05-10T04:41:07;6.18;;;4.20;;
59468;SDS011;45277;52.768;18.262;2023-05-10T04:42:40;7.88;;;4.32;;
59468;SDS011;45277;52.768;18.262;2023-05-10T04:44:14;7.75;;;4.30;;
59468;SDS011;45277;52.768;18.262;2023-05-10T04:45:45;8.13;;;4.60;;
59468;SDS011;45277;52.768;18.262;2023-05-10T04:47:17;6.88;;;4.20;;
59468;SDS011;45277;52.768;18.262;2023-05-10T04:48:49;8.52;;;4.50;;
59468;SDS011;45277;52.768;18.262;2023-05-10T04:50:20;13.15;;;4.70;;
59468;SDS011;45277;52.768;18.262;2023-05-10T04:51:51;9.15;;;4.63;;
59468;SDS011;45277;52.768;18.262;2023-05-10T04:53:23;6.82;;;4.18;;
59468;SDS011;45277;52.768;18.262;2023-05-10T04:54:55;7.50;;;4.38;;
59468;SDS011;45277;52.768;18.262;2023-05-10T04:56:27;6.63;;;4.25;;
59468;SDS011;45277;52.768;18.262;2023-05-10T04:57:58;5.55;;;3.72;;
59468;SDS011;45277;52.768;18.262;2023-05-10T04:59:30;7.88;;;4.50;;
59468;SDS011;45277;52.768;18.262;2023-05-10T05:01:05;8.30;;;4.20;;
59468;SDS011;45277;52.768;18.262;2023-05-10T05:02:38;8.02;;;4.68;;
59468;SDS011;45277;52.768;18.262;2023-05-10T05:04:12;6.30;;;4.38;;
59468;SDS011;45277;52.768;18.262;2023-05-10T05:05:45;6.80;;;3.97;;
59468;SDS011;45277;52.768;18.262;2023-05-10T05:07:17;7.72;;;4.18;;
59468;SDS011;45277;52.768;18.262;2023-05-10T05:08:49;9.77;;;4.70;;
59468;SDS011;45277;52.768;18.262;2023-05-10T05:10:20;7.25;;;4.07;;
59468;SDS011;45277;52.768;18.262;2023-05-10T05:11:52;11.35;;;5.13;;
59468;SDS011;45277;52.768;18.262;2023-05-10T05:13:24;8.30;;;4.30;;
59468;SDS011;45277;52.768;18.262;2023-05-10T05:14:56;11.02;;;4.45;;
59468;SDS011;45277;52.768;18.262;2023-05-10T05:16:30;9.55;;;4.07;;
59468;SDS011;45277;52.768;18.262;2023-05-10T05:18:02;8.02;;;4.30;;
59468;SDS011;45277;52.768;18.262;2023-05-10T05:19:34;9.18;;;4.40;;
59468;SDS011;45277;52.768;18.262;2023-05-10T05:21:16;8.20;;;4.50;;
59468;SDS011;45277;52.768;18.262;2023-05-10T05:22:50;7.05;;;4.13;;
59468;SDS011;45277;52.768;18.262;2023-05-10T05:24:24;5.70;;;3.95;;
59468;SDS011;45277;52.768;18.262;2023-05-10T05:25:56;9.00;;;4.32;;
59468;SDS011;45277;52.768;18.262;2023-05-10T05:27:28;7.60;;;4.57;;
59468;SDS011;45277;52.768;18.262;2023-05-10T05:29:00;10.85;;;4.70;;
59468;SDS011;45277;52.768;18.262;2023-05-10T05:30:32;5.95;;;3.88;;
59468;SDS011;45277;52.768;18.262;2023-05-10T05:32:03;6.70;;;3.78;;
59468;SDS011;45277;52.768;18.262;2023-05-10T05:33:35;10.18;;;5.03;;
59468;SDS011;45277;52.768;18.262;2023-05-10T05:35:08;5.68;;;3.97;;
59468;SDS011;45277;52.768;18.262;2023-05-10T05:36:40;9.63;;;4.30;;
59468;SDS011;45277;52.768;18.262;2023-05-10T05:38:12;10.30;;;4.20;;
59468;SDS011;45277;52.768;18.262;2023-05-10T05:39:43;8.77;;;4.28;;
59468;SDS011;45277;52.768;18.262;2023-05-10T05:41:16;11.07;;;4.22;;
59468;SDS011;45277;52.768;18.262;2023-05-10T05:42:47;10.18;;;4.32;;
59468;SDS011;45277;52.768;18.262;2023-05-10T05:44:19;8.10;;;4.00;;
59468;SDS011;45277;52.768;18.262;2023-05-10T05:45:54;11.60;;;4.80;;
59468;SDS011;45277;52.768;18.262;2023-05-10T05:47:28;6.03;;;3.65;;
59468;SDS011;45277;52.768;18.262;2023-05-10T05:49:00;8.77;;;3.92;;
59468;SDS011;45277;52.768;18.262;2023-05-10T05:50:32;8.75;;;3.92;;
59468;SDS011;45277;52.768;18.262;2023-05-10T05:52:03;7.78;;;3.47;;
59468;SDS011;45277;52.768;18.262;2023-05-10T05:53:35;13.70;;;3.88;;
59468;SDS011;45277;52.768;18.262;2023-05-10T05:55:07;12.07;;;4.45;;
59468;SDS011;45277;52.768;18.262;2023-05-10T05:56:38;9.80;;;3.95;;
59468;SDS011;45277;52.768;18.262;2023-05-10T05:58:10;8.25;;;4.50;;
59468;SDS011;45277;52.768;18.262;2023-05-10T05:59:41;7.97;;;4.10;;
59468;SDS011;45277;52.768;18.262;2023-05-10T06:01:14;9.00;;;3.95;;
59468;SDS011;45277;52.768;18.262;2023-05-10T06:02:45;5.72;;;4.00;;
59468;SDS011;45277;52.768;18.262;2023-05-10T06:04:17;7.85;;;3.58;;
59468;SDS011;45277;52.768;18.262;2023-05-10T06:05:48;5.57;;;3.83;;
59468;SDS011;45277;52.768;18.262;2023-05-10T06:07:20;13.02;;;4.28;;
59468;SDS011;45277;52.768;18.262;2023-05-10T06:08:52;5.97;;;3.75;;
59468;SDS011;45277;52.768;18.262;2023-05-10T06:10:23;11.75;;;4.65;;
59468;SDS011;45277;52.768;18.262;2023-05-10T06:11:56;6.32;;;3.85;;
59468;SDS011;45277;52.768;18.262;2023-05-10T06:13:28;7.85;;;3.90;;
59468;SDS011;45277;52.768;18.262;2023-05-10T06:15:03;6.68;;;3.60;;
59468;SDS011;45277;52.768;18.262;2023-05-10T06:16:35;8.55;;;3.78;;
59468;SDS011;45277;52.768;18.262;2023-05-10T06:18:07;7.50;;;4.00;;
59468;SDS011;45277;52.768;18.262;2023-05-10T06:19:38;11.02;;;3.63;;
59468;SDS011;45277;52.768;18.262;2023-05-10T06:21:10;11.75;;;3.20;;
59468;SDS011;45277;52.768;18.262;2023-05-10T06:22:42;6.72;;;3.33;;
59468;SDS011;45277;52.768;18.262;2023-05-10T06:24:13;8.15;;;3.63;;
59468;SDS011;45277;52.768;18.262;2023-05-10T06:25:45;9.75;;;3.92;;
59468;SDS011;45277;52.768;18.262;2023-05-10T06:27:16;6.78;;;3.90;;
59468;SDS011;45277;52.768;18.262;2023-05-10T06:28:48;6.38;;;3.40;;
59468;SDS011;45277;52.768;18.262;2023-05-10T06:30:19;10.48;;;3.50;;
59468;SDS011;45277;52.768;18.262;2023-05-10T06:31:53;6.15;;;3.67;;
59468;SDS011;45277;52.768;18.262;2023-05-10T06:33:25;6.13;;;3.40;;
59468;SDS011;45277;52.768;18.262;2023-05-10T06:34:57;9.88;;;3.38;;
59468;SDS011;45277;52.768;18.262;2023-05-10T06:36:29;8.40;;;3.67;;
59468;SDS011;45277;52.768;18.262;2023-05-10T06:38:01;10.73;;;3.47;;
59468;SDS011;45277;52.768;18.262;2023-05-10T06:39:32;5.72;;;3.28;;
59468;SDS011;45277;52.768;18.262;2023-05-10T06:41:04;5.07;;;3.10;;
59468;SDS011;45277;52.768;18.262;2023-05-10T06:42:36;6.28;;;3.35;;
59468;SDS011;45277;52.768;18.262;2023-05-10T06:44:07;7.00;;;3.28;;
59468;SDS011;45277;52.768;18.262;2023-05-10T06:45:39;8.00;;;3.33;;
59468;SDS011;45277;52.768;18.262;2023-05-10T06:47:11;6.00;;;3.30;;
59468;SDS011;45277;52.768;18.262;2023-05-10T06:48:42;6.50;;;3.20;;
59468;SDS011;45277;52.768;18.262;2023-05-10T06:50:14;5.95;;;3.20;;
59468;SDS011;45277;52.768;18.262;2023-05-10T06:51:45;8.00;;;2.85;;
59468;SDS011;45277;52.768;18.262;2023-05-10T06:53:17;4.05;;;2.75;;
59468;SDS011;45277;52.768;18.262;2023-05-10T06:54:49;7.72;;;3.80;;
59468;SDS011;45277;52.768;18.262;2023-05-10T06:56:20;4.82;;;3.28;;
59468;SDS011;45277;52.768;18.262;2023-05-10T06:57:52;4.05;;;3.15;;
59468;SDS011;45277;52.768;18.262;2023-05-10T06:59:23;5.90;;;3.22;;
59468;SDS011;45277;52.768;18.262;2023-05-10T07:01:01;12.18;;;3.15;;
59468;SDS011;45277;52.768;18.262;2023-05-10T07:02:33;5.32;;;3.20;;
59468;SDS011;45277;52.768;18.262;2023-05-10T07:04:05;8.63;;;3.38;;
59468;SDS011;45277;52.768;18.262;2023-05-10T07:05:37;4.75;;;3.47;;
59468;SDS011;45277;52.768;18.262;2023-05-10T07:07:09;7.25;;;3.08;;
59468;SDS011;45277;52.768;18.262;2023-05-10T07:08:40;4.97;;;3.10;;
59468;SDS011;45277;52.768;18.262;2023-05-10T07:10:12;12.00;;;4.47;;
59468;SDS011;45277;52.768;18.262;2023-05-10T07:11:43;5.25;;;2.85;;
59468;SDS011;45277;52.768;18.262;2023-05-10T07:13:15;4.80;;;3.10;;
59468;SDS011;45277;52.768;18.262;2023-05-10T07:14:46;7.82;;;3.53;;
59468;SDS011;45277;52.768;18.262;2023-05-10T07:16:18;4.85;;;3.20;;
59468;SDS011;45277;52.768;18.262;2023-05-10T07:17:50;12.70;;;3.10;;
59468;SDS011;45277;52.768;18.262;2023-05-10T07:19:22;11.15;;;3.53;;
59468;SDS011;45277;52.768;18.262;2023-05-10T07:20:54;12.68;;;3.20;;
59468;SDS011;45277;52.768;18.262;2023-05-10T07:22:26;7.38;;;3.22;;
59468;SDS011;45277;52.768;18.262;2023-05-10T07:23:57;4.80;;;2.97;;
59468;SDS011;45277;52.768;18.262;2023-05-10T07:25:28;7.10;;;2.90;;
59468;SDS011;45277;52.768;18.262;2023-05-10T07:27:00;3.88;;;3.00;;
59468;SDS011;45277;52.768;18.262;2023-05-10T07:28:32;5.10;;;3.53;;
59468;SDS011;45277;52.768;18.262;2023-05-10T07:30:03;6.85;;;2.65;;
59468;SDS011;45277;52.768;18.262;2023-05-10T07:31:35;4.30;;;3.17;;
59468;SDS011;45277;52.768;18.262;2023-05-10T07:33:07;4.10;;;3.15;;
59468;SDS011;45277;52.768;18.262;2023-05-10T07:34:39;9.07;;;3.03;;
59468;SDS011;45277;52.768;18.262;2023-05-10T07:36:11;5.22;;;2.80;;
59468;SDS011;45277;52.768;18.262;2023-05-10T07:37:43;6.40;;;3.20;;
59468;SDS011;45277;52.768;18.262;2023-05-10T07:39:14;7.50;;;3.20;;
59468;SDS011;45277;52.768;18.262;2023-05-10T07:40:46;6.32;;;3.33;;
59468;SDS011;45277;52.768;18.262;2023-05-10T07:42:18;3.80;;;2.90;;
59468;SDS011;45277;52.768;18.262;2023-05-10T07:43:49;7.25;;;2.95;;
59468;SDS011;45277;52.768;18.262;2023-05-10T07:45:21;6.63;;;2.70;;
59468;SDS011;45277;52.768;18.262;2023-05-10T07:46:53;9.52;;;3.13;;
59468;SDS011;45277;52.768;18.262;2023-05-10T07:48:26;9.15;;;3.00;;
59468;SDS011;45277;52.768;18.262;2023-05-10T07:49:58;11.20;;;3.13;;
59468;SDS011;45277;52.768;18.262;2023-05-10T07:51:29;4.05;;;3.60;;
59468;SDS011;45277;52.768;18.262;2023-05-10T07:53:01;5.45;;;2.90;;
59468;SDS011;45277;52.768;18.262;2023-05-10T07:54:32;5.60;;;3.13;;
59468;SDS011;45277;52.768;18.262;2023-05-10T07:56:25;4.28;;;3.10;;
59468;SDS011;45277;52.768;18.262;2023-05-10T07:57:57;5.72;;;2.80;;
59468;SDS011;45277;52.768;18.262;2023-05-10T07:59:32;6.25;;;2.70;;
59468;SDS011;45277;52.768;18.262;2023-05-10T08:01:03;9.02;;;3.03;;
59468;SDS011;45277;52.768;18.262;2023-05-10T08:02:35;6.68;;;2.80;;
59468;SDS011;45277;52.768;18.262;2023-05-10T08:04:07;14.52;;;3.38;;
59468;SDS011;45277;52.768;18.262;2023-05-10T08:05:39;10.43;;;3.13;;
59468;SDS011;45277;52.768;18.262;2023-05-10T08:07:11;6.75;;;3.05;;
59468;SDS011;45277;52.768;18.262;2023-05-10T08:08:42;5.38;;;2.83;;
59468;SDS011;45277;52.768;18.262;2023-05-10T08:10:15;4.38;;;3.10;;
59468;SDS011;45277;52.768;18.262;2023-05-10T08:11:47;8.48;;;3.10;;
59468;SDS011;45277;52.768;18.262;2023-05-10T08:13:19;7.13;;;3.38;;
59468;SDS011;45277;52.768;18.262;2023-05-10T08:14:50;15.40;;;3.90;;
59468;SDS011;45277;52.768;18.262;2023-05-10T08:16:21;7.60;;;3.20;;
59468;SDS011;45277;52.768;18.262;2023-05-10T08:17:53;5.78;;;2.95;;
59468;SDS011;45277;52.768;18.262;2023-05-10T08:19:24;6.82;;;3.45;;
59468;SDS011;45277;52.768;18.262;2023-05-10T08:20:56;8.30;;;3.08;;
59468;SDS011;45277;52.768;18.262;2023-05-10T08:22:28;6.95;;;3.20;;
59468;SDS011;45277;52.768;18.262;2023-05-10T08:23:59;11.93;;;3.65;;
59468;SDS011;45277;52.768;18.262;2023-05-10T08:25:31;6.22;;;2.88;;
59468;SDS011;45277;52.768;18.262;2023-05-10T08:27:03;3.47;;;2.97;;
59468;SDS011;45277;52.768;18.262;2023-05-10T08:28:37;3.53;;;2.90;;
59468;SDS011;45277;52.768;18.262;2023-05-10T08:30:09;9.43;;;3.22;;
59468;SDS011;45277;52.768;18.262;2023-05-10T08:31:41;5.50;;;3.17;;
59468;SDS011;45277;52.768;18.262;2023-05-10T08:33:12;5.10;;;2.90;;
59468;SDS011;45277;52.768;18.262;2023-05-10T08:34:44;9.55;;;3.45;;
59468;SDS011;45277;52.768;18.262;2023-05-10T08:36:16;21.38;;;3.47;;
59468;SDS011;45277;52.768;18.262;2023-05-10T08:37:51;7.07;;;3.30;;
59468;SDS011;45277;52.768;18.262;2023-05-10T08:39:23;7.70;;;3.10;;
59468;SDS011;45277;52.768;18.262;2023-05-10T08:40:55;11.15;;;3.17;;
59468;SDS011;45277;52.768;18.262;2023-05-10T08:42:30;5.57;;;2.88;;
59468;SDS011;45277;52.768;18.262;2023-05-10T08:44:03;49.00;;;4.45;;
59468;SDS011;45277;52.768;18.262;2023-05-10T08:45:40;69.95;;;5.28;;
59468;SDS011;45277;52.768;18.262;2023-05-10T08:47:17;3.63;;;2.55;;
59468;SDS011;45277;52.768;18.262;2023-05-10T08:48:49;4.13;;;2.67;;
59468;SDS011;45277;52.768;18.262;2023-05-10T08:50:23;4.97;;;2.90;;
59468;SDS011;45277;52.768;18.262;2023-05-10T08:51:55;10.40;;;3.10;;
59468;SDS011;45277;52.768;18.262;2023-05-10T08:53:30;4.60;;;3.13;;
59468;SDS011;45277;52.768;18.262;2023-05-10T08:55:04;7.65;;;3.25;;
59468;SDS011;45277;52.768;18.262;2023-05-10T08:56:35;7.00;;;2.70;;
59468;SDS011;45277;52.768;18.262;2023-05-10T08:58:07;9.45;;;3.10;;
59468;SDS011;45277;52.768;18.262;2023-05-10T08:59:39;5.18;;;3.10;;
59468;SDS011;45277;52.768;18.262;2023-05-10T09:01:11;12.30;;;2.95;;
59468;SDS011;45277;52.768;18.262;2023-05-10T09:02:44;15.20;;;3.05;;
59468;SDS011;45277;52.768;18.262;2023-05-10T09:04:16;25.10;;;3.85;;
59468;SDS011;45277;52.768;18.262;2023-05-10T09:05:48;5.95;;;3.05;;
59468;SDS011;45277;52.768;18.262;2023-05-10T09:07:20;5.15;;;3.10;;
59468;SDS011;45277;52.768;18.262;2023-05-10T09:08:51;12.85;;;3.40;;
59468;SDS011;45277;52.768;18.262;2023-05-10T09:10:23;13.32;;;3.30;;
59468;SDS011;45277;52.768;18.262;2023-05-10T09:11:57;5.38;;;3.10;;
59468;SDS011;45277;52.768;18.262;2023-05-10T09:13:29;4.88;;;3.15;;
59468;SDS011;45277;52.768;18.262;2023-05-10T09:15:01;11.75;;;3.90;;
59468;SDS011;45277;52.768;18.262;2023-05-10T09:16:34;13.13;;;3.55;;
59468;SDS011;45277;52.768;18.262;2023-05-10T09:18:05;5.00;;;3.08;;
59468;SDS011;45277;52.768;18.262;2023-05-10T09:19:37;7.55;;;3.10;;
59468;SDS011;45277;52.768;18.262;2023-05-10T09:21:09;5.30;;;2.95;;
59468;SDS011;45277;52.768;18.262;2023-05-10T09:22:42;6.40;;;3.00;;
59468;SDS011;45277;52.768;18.262;2023-05-10T09:24:13;11.55;;;3.08;;